FIE393 UDYZ-URKK
Flight info
| Callsign | FIE393 |
|---|---|
| Flight time | 1h 5m |
| Altitude | 34000 |
| Route | TIBLO T918 OGEVI DCT IBERI DCT BANUT/K0839F340 A277 LAMET B950 SIBAN SIBAN6R |
| Aircraft | A320/M-SDE3FGHIRWY/LB1 |
Departure
| Time | 2026-05-05 13:01 |
|---|---|
| Airport | Zvartnots International Airport (UDYZ) |
Arrival
| Time | 2026-05-05 14:07 |
|---|---|
| Airport | Krasnodar Pashkovsky International Airport (URKK) |
| Time | Latitude | Longitude | Altitude | Speed | Heading |
|---|---|---|---|---|---|
| 2026-05-05 12:32 | 40.15093 | 44.40070 | 2838 ft | 0 kts | 360° |
| 2026-05-05 12:53 | 40.15062 | 44.40070 | 2835 ft | 4 kts | 360° |
| 2026-05-05 12:53 | 40.15040 | 44.40070 | 2836 ft | 4 kts | 5° |
| 2026-05-05 12:53 | 40.15023 | 44.40067 | 2837 ft | 4 kts | 19° |
| 2026-05-05 12:53 | 40.15000 | 44.40050 | 2837 ft | 4 kts | 47° |
| 2026-05-05 12:54 | 40.14985 | 44.39989 | 2837 ft | 4 kts | 89° |
| 2026-05-05 12:54 | 40.14985 | 44.39979 | 2837 ft | 0 kts | 90° |
| 2026-05-05 12:56 | 40.14985 | 44.39989 | 2837 ft | 5 kts | 91° |
| 2026-05-05 12:56 | 40.14957 | 44.40031 | 2837 ft | 6 kts | 164° |
| 2026-05-05 12:57 | 40.14897 | 44.40031 | 2837 ft | 14 kts | 180° |
| 2026-05-05 12:57 | 40.14789 | 44.40032 | 2836 ft | 13 kts | 182° |
| 2026-05-05 12:57 | 40.14734 | 44.39941 | 2836 ft | 19 kts | 271° |
| 2026-05-05 12:57 | 40.14733 | 44.39721 | 2833 ft | 27 kts | 270° |
| 2026-05-05 12:58 | 40.14734 | 44.39465 | 2831 ft | 29 kts | 269° |
| 2026-05-05 12:58 | 40.14732 | 44.39195 | 2829 ft | 30 kts | 269° |
| 2026-05-05 12:58 | 40.14731 | 44.38923 | 2830 ft | 31 kts | 270° |
| 2026-05-05 12:58 | 40.14730 | 44.38644 | 2830 ft | 30 kts | 268° |
| 2026-05-05 12:59 | 40.14725 | 44.38447 | 2830 ft | 11 kts | 256° |
| 2026-05-05 12:59 | 40.14700 | 44.38365 | 2829 ft | 6 kts | 287° |
| 2026-05-05 12:59 | 40.14720 | 44.38362 | 2833 ft | 2 kts | 24° |
| 2026-05-05 13:00 | 40.14727 | 44.38391 | 2830 ft | 0 kts | 90° |
| 2026-05-05 13:00 | 40.14727 | 44.38406 | 2831 ft | 8 kts | 90° |
| 2026-05-05 13:01 | 40.14746 | 44.41217 | 3012 ft | 168 kts | 88° |
| 2026-05-05 13:01 | 40.14751 | 44.42748 | 3738 ft | 169 kts | 90° |
| 2026-05-05 13:01 | 40.14750 | 44.44309 | 4332 ft | 180 kts | 95° |
| 2026-05-05 13:01 | 40.14238 | 44.45822 | 4809 ft | 190 kts | 141° |
| 2026-05-05 13:02 | 40.13011 | 44.46344 | 5359 ft | 192 kts | 186° |
| 2026-05-05 13:02 | 40.11800 | 44.45612 | 5839 ft | 201 kts | 226° |
| 2026-05-05 13:02 | 40.11252 | 44.43947 | 6344 ft | 207 kts | 271° |
| 2026-05-05 13:02 | 40.11702 | 44.42187 | 6892 ft | 207 kts | 302° |
| 2026-05-05 13:03 | 40.12490 | 44.40579 | 7276 ft | 218 kts | 303° |
| 2026-05-05 13:03 | 40.13388 | 44.38853 | 7444 ft | 242 kts | 304° |
| 2026-05-05 13:03 | 40.14391 | 44.36947 | 7729 ft | 267 kts | 304° |
| 2026-05-05 13:03 | 40.15483 | 44.34858 | 8113 ft | 287 kts | 303° |
| 2026-05-05 13:04 | 40.16619 | 44.32662 | 8824 ft | 295 kts | 302° |
| 2026-05-05 13:04 | 40.17766 | 44.30418 | 9658 ft | 298 kts | 302° |
| 2026-05-05 13:04 | 40.18924 | 44.28139 | 10375 ft | 306 kts | 302° |
| 2026-05-05 13:04 | 40.20147 | 44.25726 | 10625 ft | 329 kts | 302° |
| 2026-05-05 13:05 | 40.21437 | 44.23174 | 10861 ft | 351 kts | 302° |
| 2026-05-05 13:05 | 40.22801 | 44.20467 | 11388 ft | 360 kts | 302° |
| 2026-05-05 13:05 | 40.24187 | 44.17714 | 12097 ft | 364 kts | 302° |
| 2026-05-05 13:05 | 40.25587 | 44.14932 | 12805 ft | 367 kts | 302° |
| 2026-05-05 13:06 | 40.26998 | 44.12129 | 13532 ft | 371 kts | 302° |
| 2026-05-05 13:06 | 40.28426 | 44.09301 | 14186 ft | 374 kts | 302° |
| 2026-05-05 13:06 | 40.29865 | 44.06443 | 14805 ft | 378 kts | 302° |
| 2026-05-05 13:06 | 40.31320 | 44.03551 | 15423 ft | 381 kts | 301° |
| 2026-05-05 13:07 | 40.32782 | 44.00636 | 16049 ft | 385 kts | 301° |
| 2026-05-05 13:07 | 40.34258 | 43.97693 | 16684 ft | 387 kts | 301° |
| 2026-05-05 13:07 | 40.35784 | 43.94760 | 17281 ft | 391 kts | 307° |
| 2026-05-05 13:07 | 40.37691 | 43.92180 | 17848 ft | 398 kts | 319° |
| 2026-05-05 13:08 | 40.40014 | 43.90165 | 18383 ft | 403 kts | 332° |
| 2026-05-05 13:08 | 40.42637 | 43.88833 | 18900 ft | 407 kts | 345° |
| 2026-05-05 13:08 | 40.45444 | 43.88226 | 19396 ft | 411 kts | 354° |
| 2026-05-05 13:08 | 40.48294 | 43.87866 | 19944 ft | 412 kts | 354° |
| 2026-05-05 13:09 | 40.51155 | 43.87510 | 20431 ft | 416 kts | 354° |
| 2026-05-05 13:09 | 40.54014 | 43.87151 | 20893 ft | 419 kts | 353° |
| 2026-05-05 13:09 | 40.56963 | 43.86776 | 21357 ft | 422 kts | 353° |
| 2026-05-05 13:09 | 40.59862 | 43.86404 | 21836 ft | 424 kts | 353° |
| 2026-05-05 13:10 | 40.62806 | 43.86024 | 22323 ft | 426 kts | 353° |
| 2026-05-05 13:10 | 40.65771 | 43.85644 | 22775 ft | 429 kts | 353° |
| 2026-05-05 13:10 | 40.68742 | 43.85265 | 23250 ft | 431 kts | 353° |
| 2026-05-05 13:10 | 40.71742 | 43.84886 | 23668 ft | 434 kts | 353° |
| 2026-05-05 13:11 | 40.74753 | 43.84495 | 24041 ft | 436 kts | 353° |
| 2026-05-05 13:11 | 40.77777 | 43.84067 | 24396 ft | 439 kts | 352° |
| 2026-05-05 13:11 | 40.80817 | 43.83611 | 24702 ft | 441 kts | 352° |
| 2026-05-05 13:11 | 40.83885 | 43.83142 | 25038 ft | 444 kts | 352° |
| 2026-05-05 13:12 | 40.86960 | 43.82671 | 25378 ft | 446 kts | 352° |
| 2026-05-05 13:12 | 40.90054 | 43.82199 | 25723 ft | 449 kts | 352° |
| 2026-05-05 13:12 | 40.93168 | 43.81727 | 26076 ft | 451 kts | 352° |
| 2026-05-05 13:12 | 40.96294 | 43.81258 | 26417 ft | 454 kts | 352° |
| 2026-05-05 13:13 | 40.99438 | 43.80789 | 26762 ft | 456 kts | 352° |
| 2026-05-05 13:13 | 41.02596 | 43.80318 | 27092 ft | 458 kts | 352° |
| 2026-05-05 13:13 | 41.05771 | 43.79806 | 27409 ft | 460 kts | 348° |
| 2026-05-05 13:13 | 41.08862 | 43.78749 | 27705 ft | 459 kts | 338° |
| 2026-05-05 13:14 | 41.11768 | 43.77017 | 28010 ft | 458 kts | 328° |
| 2026-05-05 13:14 | 41.14418 | 43.74690 | 28297 ft | 457 kts | 319° |
| 2026-05-05 13:14 | 41.16742 | 43.71836 | 28545 ft | 455 kts | 309° |
| 2026-05-05 13:14 | 41.18690 | 43.68530 | 28804 ft | 454 kts | 301° |
| 2026-05-05 13:15 | 41.20471 | 43.65059 | 29078 ft | 456 kts | 301° |
| 2026-05-05 13:15 | 41.22260 | 43.61565 | 29356 ft | 458 kts | 301° |
| 2026-05-05 13:15 | 41.24051 | 43.58060 | 29650 ft | 459 kts | 301° |
| 2026-05-05 13:15 | 41.25842 | 43.54548 | 30024 ft | 459 kts | 301° |
| 2026-05-05 13:16 | 41.27609 | 43.51076 | 30360 ft | 458 kts | 301° |
| 2026-05-05 13:16 | 41.29392 | 43.47573 | 30669 ft | 457 kts | 301° |
| 2026-05-05 13:16 | 41.31173 | 43.44072 | 30987 ft | 457 kts | 301° |
| 2026-05-05 13:16 | 41.32955 | 43.40565 | 31295 ft | 457 kts | 301° |
| 2026-05-05 13:17 | 41.34730 | 43.37065 | 31624 ft | 456 kts | 301° |
| 2026-05-05 13:17 | 41.36506 | 43.33560 | 31966 ft | 456 kts | 301° |
| 2026-05-05 13:17 | 41.38273 | 43.30064 | 32295 ft | 455 kts | 301° |
| 2026-05-05 13:17 | 41.40043 | 43.26566 | 32621 ft | 455 kts | 301° |
| 2026-05-05 13:18 | 41.41809 | 43.23076 | 32946 ft | 454 kts | 301° |
| 2026-05-05 13:18 | 41.43573 | 43.19578 | 33266 ft | 454 kts | 301° |
| 2026-05-05 13:18 | 41.45332 | 43.16087 | 33567 ft | 454 kts | 300° |
| 2026-05-05 13:18 | 41.47092 | 43.12587 | 33845 ft | 454 kts | 300° |
| 2026-05-05 13:19 | 41.50614 | 43.05554 | 33912 ft | 456 kts | 300° |
| 2026-05-05 13:19 | 41.54141 | 42.98512 | 33917 ft | 457 kts | 300° |
| 2026-05-05 13:20 | 41.57672 | 42.91460 | 33926 ft | 457 kts | 300° |
| 2026-05-05 13:20 | 41.61175 | 42.84441 | 33923 ft | 457 kts | 300° |
| 2026-05-05 13:21 | 41.64697 | 42.77372 | 33934 ft | 457 kts | 300° |
| 2026-05-05 13:21 | 41.68209 | 42.70290 | 33943 ft | 457 kts | 300° |
| 2026-05-05 13:22 | 41.71714 | 42.63198 | 33949 ft | 457 kts | 300° |
| 2026-05-05 13:22 | 41.75221 | 42.56111 | 33955 ft | 457 kts | 300° |
| 2026-05-05 13:23 | 41.78724 | 42.49010 | 33967 ft | 456 kts | 300° |
| 2026-05-05 13:23 | 41.82217 | 42.41912 | 33970 ft | 456 kts | 300° |
| 2026-05-05 13:24 | 41.85705 | 42.34798 | 33987 ft | 456 kts | 300° |
| 2026-05-05 13:24 | 41.89191 | 42.27678 | 33978 ft | 456 kts | 300° |
| 2026-05-05 13:25 | 41.92673 | 42.20553 | 33980 ft | 457 kts | 300° |
| 2026-05-05 13:25 | 41.96156 | 42.13411 | 34001 ft | 457 kts | 300° |
| 2026-05-05 13:26 | 41.99633 | 42.06259 | 33992 ft | 457 kts | 300° |
| 2026-05-05 13:26 | 42.03081 | 41.99140 | 33992 ft | 457 kts | 300° |
| 2026-05-05 13:27 | 42.06544 | 41.91977 | 33988 ft | 456 kts | 300° |
| 2026-05-05 13:27 | 42.10007 | 41.84807 | 34001 ft | 457 kts | 300° |
| 2026-05-05 13:28 | 42.13467 | 41.77621 | 33991 ft | 457 kts | 300° |
| 2026-05-05 13:28 | 42.16923 | 41.70429 | 33983 ft | 457 kts | 300° |
| 2026-05-05 13:29 | 42.20400 | 41.63300 | 33994 ft | 458 kts | 301° |
| 2026-05-05 13:29 | 42.23934 | 41.56132 | 33988 ft | 459 kts | 300° |
| 2026-05-05 13:30 | 42.27453 | 41.48950 | 33979 ft | 459 kts | 300° |
| 2026-05-05 13:30 | 42.30960 | 41.41738 | 33986 ft | 459 kts | 300° |
| 2026-05-05 13:31 | 42.34460 | 41.34502 | 34005 ft | 459 kts | 300° |
| 2026-05-05 13:31 | 42.37937 | 41.27318 | 33987 ft | 459 kts | 300° |
| 2026-05-05 13:32 | 42.41439 | 41.20083 | 33987 ft | 459 kts | 300° |
| 2026-05-05 13:32 | 42.44938 | 41.12843 | 33999 ft | 460 kts | 300° |
| 2026-05-05 13:33 | 42.48429 | 41.05576 | 33982 ft | 460 kts | 300° |
| 2026-05-05 13:33 | 42.51920 | 40.98294 | 33976 ft | 461 kts | 300° |
| 2026-05-05 13:34 | 42.55421 | 40.90978 | 33994 ft | 462 kts | 300° |
| 2026-05-05 13:34 | 42.58917 | 40.83652 | 33981 ft | 462 kts | 300° |
| 2026-05-05 13:35 | 42.62410 | 40.76313 | 33972 ft | 463 kts | 300° |
| 2026-05-05 13:35 | 42.65877 | 40.69014 | 33971 ft | 463 kts | 300° |
| 2026-05-05 13:36 | 42.69367 | 40.61650 | 33980 ft | 464 kts | 300° |
| 2026-05-05 13:36 | 42.72863 | 40.54263 | 33975 ft | 464 kts | 300° |
| 2026-05-05 13:37 | 42.76354 | 40.46850 | 33976 ft | 465 kts | 300° |
| 2026-05-05 13:37 | 42.79837 | 40.39439 | 33995 ft | 465 kts | 300° |
| 2026-05-05 13:38 | 42.83321 | 40.32008 | 33985 ft | 465 kts | 300° |
| 2026-05-05 13:38 | 42.86788 | 40.24611 | 33983 ft | 466 kts | 300° |
| 2026-05-05 13:39 | 42.90265 | 40.17146 | 33972 ft | 466 kts | 300° |
| 2026-05-05 13:39 | 42.93739 | 40.09686 | 33979 ft | 466 kts | 300° |
| 2026-05-05 13:40 | 42.97212 | 40.02201 | 33973 ft | 467 kts | 300° |
| 2026-05-05 13:40 | 43.00630 | 39.94658 | 33973 ft | 467 kts | 298° |
| 2026-05-05 13:41 | 43.03283 | 39.88183 | 33975 ft | 466 kts | 296° |
| 2026-05-05 13:41 | 43.06328 | 39.80412 | 33976 ft | 467 kts | 296° |
| 2026-05-05 13:42 | 43.09433 | 39.72595 | 33973 ft | 468 kts | 297° |
| 2026-05-05 13:42 | 43.12595 | 39.64807 | 33975 ft | 468 kts | 297° |
| 2026-05-05 13:43 | 43.15769 | 39.56998 | 33984 ft | 469 kts | 298° |
| 2026-05-05 13:43 | 43.18928 | 39.49156 | 33976 ft | 470 kts | 297° |
| 2026-05-05 13:44 | 43.22072 | 39.41298 | 33978 ft | 470 kts | 297° |
| 2026-05-05 13:44 | 43.25194 | 39.33472 | 33976 ft | 470 kts | 297° |
| 2026-05-05 13:45 | 43.28338 | 39.25592 | 33983 ft | 471 kts | 298° |
| 2026-05-05 13:45 | 43.31625 | 39.17820 | 33979 ft | 471 kts | 307° |
| 2026-05-05 13:46 | 43.33816 | 39.14474 | 33972 ft | 471 kts | 318° |
| 2026-05-05 13:46 | 43.36403 | 39.11701 | 33815 ft | 472 kts | 327° |
| 2026-05-05 13:46 | 43.39279 | 39.09568 | 33536 ft | 471 kts | 339° |
| 2026-05-05 13:46 | 43.42414 | 39.08319 | 33291 ft | 467 kts | 353° |
| 2026-05-05 13:47 | 43.45639 | 39.07939 | 32768 ft | 464 kts | 359° |
| 2026-05-05 13:47 | 43.48894 | 39.07711 | 31599 ft | 472 kts | 360° |
| 2026-05-05 13:47 | 43.52189 | 39.07490 | 30674 ft | 475 kts | 360° |
| 2026-05-05 13:47 | 43.55507 | 39.07265 | 29433 ft | 481 kts | 360° |
| 2026-05-05 13:48 | 43.58843 | 39.07026 | 28741 ft | 475 kts | 359° |
| 2026-05-05 13:48 | 43.62108 | 39.06773 | 28115 ft | 467 kts | 359° |
| 2026-05-05 13:48 | 43.65340 | 39.06512 | 27410 ft | 462 kts | 359° |
| 2026-05-05 13:48 | 43.68489 | 39.06258 | 26738 ft | 456 kts | 359° |
| 2026-05-05 13:49 | 43.71644 | 39.06004 | 26085 ft | 451 kts | 359° |
| 2026-05-05 13:49 | 43.74761 | 39.05751 | 25438 ft | 447 kts | 358° |
| 2026-05-05 13:49 | 43.77860 | 39.05501 | 24784 ft | 444 kts | 358° |
| 2026-05-05 13:49 | 43.80930 | 39.05260 | 24150 ft | 440 kts | 358° |
| 2026-05-05 13:50 | 43.83978 | 39.05024 | 23503 ft | 437 kts | 358° |
| 2026-05-05 13:50 | 43.87008 | 39.04791 | 22820 ft | 433 kts | 358° |
| 2026-05-05 13:50 | 43.89997 | 39.04558 | 22253 ft | 427 kts | 358° |
| 2026-05-05 13:50 | 43.92947 | 39.04330 | 21687 ft | 422 kts | 358° |
| 2026-05-05 13:51 | 43.95859 | 39.04105 | 21180 ft | 416 kts | 358° |
| 2026-05-05 13:51 | 43.98733 | 39.03878 | 20639 ft | 411 kts | 358° |
| 2026-05-05 13:51 | 44.01573 | 39.03649 | 20169 ft | 406 kts | 358° |
| 2026-05-05 13:51 | 44.04373 | 39.03423 | 19690 ft | 401 kts | 358° |
| 2026-05-05 13:52 | 44.07143 | 39.03201 | 19226 ft | 396 kts | 358° |
| 2026-05-05 13:52 | 44.09877 | 39.02986 | 18769 ft | 392 kts | 358° |
| 2026-05-05 13:52 | 44.12593 | 39.02771 | 18277 ft | 389 kts | 358° |
| 2026-05-05 13:52 | 44.15263 | 39.02251 | 17762 ft | 387 kts | 348° |
| 2026-05-05 13:53 | 44.17873 | 39.01414 | 17265 ft | 383 kts | 348° |
| 2026-05-05 13:53 | 44.20467 | 39.00586 | 16779 ft | 380 kts | 348° |
| 2026-05-05 13:53 | 44.23036 | 38.99768 | 16286 ft | 378 kts | 347° |
| 2026-05-05 13:53 | 44.25555 | 38.98968 | 15790 ft | 375 kts | 347° |
| 2026-05-05 13:54 | 44.28095 | 38.98159 | 15282 ft | 374 kts | 347° |
| 2026-05-05 13:54 | 44.30624 | 38.97349 | 14779 ft | 372 kts | 347° |
| 2026-05-05 13:54 | 44.33146 | 38.96538 | 14262 ft | 371 kts | 347° |
| 2026-05-05 13:54 | 44.35652 | 38.95693 | 13754 ft | 370 kts | 346° |
| 2026-05-05 13:55 | 44.38141 | 38.94794 | 13192 ft | 369 kts | 345° |
| 2026-05-05 13:55 | 44.40609 | 38.93870 | 12675 ft | 365 kts | 345° |
| 2026-05-05 13:55 | 44.43057 | 38.92943 | 12143 ft | 363 kts | 344° |
| 2026-05-05 13:55 | 44.45482 | 38.92024 | 11618 ft | 359 kts | 344° |
| 2026-05-05 13:56 | 44.47885 | 38.91120 | 11085 ft | 356 kts | 344° |
| 2026-05-05 13:56 | 44.50272 | 38.90232 | 10640 ft | 351 kts | 343° |
| 2026-05-05 13:56 | 44.52588 | 38.89373 | 10518 ft | 337 kts | 344° |
| 2026-05-05 13:56 | 44.54807 | 38.88552 | 10389 ft | 323 kts | 343° |
| 2026-05-05 13:57 | 44.56941 | 38.87761 | 10263 ft | 311 kts | 344° |
| 2026-05-05 13:57 | 44.58998 | 38.86999 | 10142 ft | 300 kts | 343° |
| 2026-05-05 13:57 | 44.60993 | 38.86259 | 9931 ft | 293 kts | 343° |
| 2026-05-05 13:57 | 44.62947 | 38.85533 | 9734 ft | 290 kts | 343° |
| 2026-05-05 13:58 | 44.64889 | 38.84807 | 9382 ft | 288 kts | 343° |
| 2026-05-05 13:58 | 44.66791 | 38.84096 | 9021 ft | 286 kts | 343° |
| 2026-05-05 13:58 | 44.68706 | 38.83379 | 8646 ft | 284 kts | 343° |
| 2026-05-05 13:58 | 44.70610 | 38.82668 | 8279 ft | 282 kts | 343° |
| 2026-05-05 13:59 | 44.74386 | 38.81259 | 7552 ft | 280 kts | 344° |
| 2026-05-05 13:59 | 44.76279 | 38.80674 | 7196 ft | 278 kts | 353° |
| 2026-05-05 14:00 | 44.80084 | 38.81623 | 6289 ft | 283 kts | 22° |
| 2026-05-05 14:00 | 44.81882 | 38.82688 | 5856 ft | 281 kts | 22° |
| 2026-05-05 14:00 | 44.83678 | 38.83794 | 5084 ft | 281 kts | 29° |
| 2026-05-05 14:00 | 44.85209 | 38.85475 | 4407 ft | 277 kts | 49° |
| 2026-05-05 14:01 | 44.86349 | 38.87530 | 4167 ft | 256 kts | 53° |
| 2026-05-05 14:01 | 44.87387 | 38.89430 | 4041 ft | 234 kts | 52° |
| 2026-05-05 14:01 | 44.88363 | 38.91202 | 3943 ft | 224 kts | 52° |
| 2026-05-05 14:01 | 44.89299 | 38.92902 | 3841 ft | 215 kts | 52° |
| 2026-05-05 14:02 | 44.90204 | 38.94546 | 3689 ft | 210 kts | 52° |
| 2026-05-05 14:02 | 44.91093 | 38.96169 | 3467 ft | 208 kts | 52° |
| 2026-05-05 14:02 | 44.91975 | 38.97782 | 3228 ft | 207 kts | 53° |
| 2026-05-05 14:02 | 44.92853 | 38.99388 | 2973 ft | 206 kts | 53° |
| 2026-05-05 14:03 | 44.93724 | 39.00984 | 2725 ft | 205 kts | 53° |
| 2026-05-05 14:03 | 44.94581 | 39.02553 | 2475 ft | 197 kts | 53° |
| 2026-05-05 14:03 | 44.95400 | 39.04054 | 2247 ft | 189 kts | 53° |
| 2026-05-05 14:03 | 44.96172 | 39.05469 | 2034 ft | 175 kts | 54° |
| 2026-05-05 14:04 | 44.96892 | 39.06792 | 1813 ft | 165 kts | 53° |
| 2026-05-05 14:04 | 44.97572 | 39.08038 | 1619 ft | 156 kts | 53° |
| 2026-05-05 14:04 | 44.98207 | 39.09204 | 1448 ft | 144 kts | 53° |
| 2026-05-05 14:04 | 44.98798 | 39.10291 | 1268 ft | 137 kts | 53° |
| 2026-05-05 14:05 | 44.99365 | 39.11335 | 1099 ft | 135 kts | 52° |
| 2026-05-05 14:05 | 44.99938 | 39.12382 | 941 ft | 134 kts | 52° |
| 2026-05-05 14:05 | 45.00512 | 39.13421 | 775 ft | 135 kts | 52° |
| 2026-05-05 14:05 | 45.01087 | 39.14477 | 597 ft | 136 kts | 53° |
| 2026-05-05 14:06 | 45.01653 | 39.15540 | 424 ft | 135 kts | 52° |
| 2026-05-05 14:06 | 45.02221 | 39.16602 | 269 ft | 135 kts | 52° |
| 2026-05-05 14:06 | 45.02791 | 39.17650 | 120 ft | 130 kts | 52° |
| 2026-05-05 14:06 | 45.03258 | 39.18509 | 113 ft | 86 kts | 53° |
| 2026-05-05 14:07 | 45.03512 | 39.18976 | 116 ft | 28 kts | 50° |
| 2026-05-05 14:07 | 45.03666 | 39.19098 | 112 ft | 24 kts | 23° |
| 2026-05-05 14:07 | 45.03765 | 39.19095 | 108 ft | 14 kts | 300° |
| 2026-05-05 14:07 | 45.03725 | 39.18987 | 106 ft | 12 kts | 230° |
| 2026-05-05 14:08 | 45.03676 | 39.18898 | 107 ft | 11 kts | 233° |
| 2026-05-05 14:08 | 45.03625 | 39.18801 | 107 ft | 15 kts | 233° |
| 2026-05-05 14:08 | 45.03547 | 39.18655 | 107 ft | 22 kts | 232° |
| 2026-05-05 14:08 | 45.03441 | 39.18461 | 107 ft | 28 kts | 232° |
| 2026-05-05 14:09 | 45.03311 | 39.18223 | 107 ft | 31 kts | 232° |
| 2026-05-05 14:09 | 45.03174 | 39.17969 | 107 ft | 33 kts | 231° |
| 2026-05-05 14:09 | 45.03045 | 39.17738 | 107 ft | 28 kts | 235° |
| 2026-05-05 14:09 | 45.02958 | 39.17574 | 107 ft | 18 kts | 231° |
| 2026-05-05 14:10 | 45.02883 | 39.17436 | 107 ft | 17 kts | 233° |
| 2026-05-05 14:10 | 45.02821 | 39.17318 | 107 ft | 11 kts | 233° |
| 2026-05-05 14:10 | 45.02814 | 39.17231 | 106 ft | 9 kts | 315° |
| 2026-05-05 14:10 | 45.02863 | 39.17180 | 106 ft | 8 kts | 323° |
| 2026-05-05 14:11 | 45.02903 | 39.17135 | 106 ft | 7 kts | 321° |
| 2026-05-05 14:11 | 45.02937 | 39.17075 | 106 ft | 10 kts | 296° |
| 2026-05-05 14:11 | 45.02975 | 39.16962 | 106 ft | 15 kts | 299° |
| 2026-05-05 14:11 | 45.03058 | 39.16836 | 106 ft | 20 kts | 323° |
| 2026-05-05 14:12 | 45.03182 | 39.16702 | 106 ft | 24 kts | 322° |
| 2026-05-05 14:12 | 45.03328 | 39.16544 | 106 ft | 28 kts | 323° |
| 2026-05-05 14:12 | 45.03486 | 39.16375 | 106 ft | 29 kts | 323° |
| 2026-05-05 14:12 | 45.03645 | 39.16204 | 106 ft | 29 kts | 323° |
| 2026-05-05 14:13 | 45.03740 | 39.16009 | 106 ft | 23 kts | 268° |
| 2026-05-05 14:13 | 45.03737 | 39.15780 | 106 ft | 24 kts | 269° |
| 2026-05-05 14:13 | 45.03750 | 39.15543 | 106 ft | 25 kts | 290° |
| 2026-05-05 14:13 | 45.03818 | 39.15316 | 106 ft | 24 kts | 290° |
| 2026-05-05 14:14 | 45.03803 | 39.15125 | 106 ft | 19 kts | 242° |
| 2026-05-05 14:14 | 45.03737 | 39.14958 | 105 ft | 20 kts | 242° |
| 2026-05-05 14:14 | 45.03667 | 39.14783 | 106 ft | 21 kts | 239° |
| 2026-05-05 14:14 | 45.03592 | 39.14594 | 106 ft | 23 kts | 240° |
| 2026-05-05 14:15 | 45.03513 | 39.14396 | 105 ft | 24 kts | 240° |
| 2026-05-05 14:15 | 45.03459 | 39.14263 | 106 ft | 13 kts | 240° |
| 2026-05-05 14:15 | 45.03428 | 39.14179 | 106 ft | 6 kts | 248° |
| 2026-05-05 14:15 | 45.03448 | 39.14139 | 106 ft | 6 kts | 333° |
| 2026-05-05 14:16 | 45.03469 | 39.14122 | 106 ft | 0 kts | 332° |
| 2026-05-05 14:19 | 45.03470 | 39.14122 | 106 ft | 0 kts | 332° |